sensor_id;sensor_type;location;lat;lon;timestamp;pressure;altitude;pressure_sealevel;temperature;humidity
4767;BME280;2397;53.576;9.746;2022-12-15T00:01:53;100332.09;;;-6.63;100.00
4767;BME280;2397;53.576;9.746;2022-12-15T00:04:38;100335.13;;;-6.57;100.00
4767;BME280;2397;53.576;9.746;2022-12-15T00:07:23;100328.53;;;-6.55;100.00
4767;BME280;2397;53.576;9.746;2022-12-15T00:10:08;100322.53;;;-6.57;100.00
4767;BME280;2397;53.576;9.746;2022-12-15T00:12:52;100318.75;;;-6.62;100.00
4767;BME280;2397;53.576;9.746;2022-12-15T00:15:37;100317.22;;;-6.60;100.00
4767;BME280;2397;53.576;9.746;2022-12-15T00:18:22;100323.28;;;-6.58;100.00
4767;BME280;2397;53.576;9.746;2022-12-15T00:21:07;100332.59;;;-6.57;100.00
4767;BME280;2397;53.576;9.746;2022-12-15T00:23:52;100336.84;;;-6.56;100.00
4767;BME280;2397;53.576;9.746;2022-12-15T00:26:36;100333.88;;;-6.62;100.00
4767;BME280;2397;53.576;9.746;2022-12-15T00:29:21;100356.75;;;-6.59;100.00
4767;BME280;2397;53.576;9.746;2022-12-15T00:32:06;100352.34;;;-6.62;100.00
4767;BME280;2397;53.576;9.746;2022-12-15T00:34:51;100354.13;;;-6.61;100.00
4767;BME280;2397;53.576;9.746;2022-12-15T00:37:36;100371.34;;;-6.55;100.00
4767;BME280;2397;53.576;9.746;2022-12-15T00:40:21;100360.84;;;-6.49;100.00
4767;BME280;2397;53.576;9.746;2022-12-15T00:42:47;100357.44;;;-6.50;100.00
4767;BME280;2397;53.576;9.746;2022-12-15T00:45:15;100361.84;;;-6.47;100.00
4767;BME280;2397;53.576;9.746;2022-12-15T00:47:41;100363.19;;;-6.41;100.00
4767;BME280;2397;53.576;9.746;2022-12-15T00:50:07;100366.16;;;-6.34;100.00
4767;BME280;2397;53.576;9.746;2022-12-15T00:52:52;100352.56;;;-6.37;100.00
4767;BME280;2397;53.576;9.746;2022-12-15T00:55:37;100359.78;;;-6.41;100.00
4767;BME280;2397;53.576;9.746;2022-12-15T00:58:22;100364.16;;;-6.39;100.00
4767;BME280;2397;53.576;9.746;2022-12-15T01:01:08;100357.66;;;-6.47;100.00
4767;BME280;2397;53.576;9.746;2022-12-15T01:03:53;100352.91;;;-6.44;100.00
4767;BME280;2397;53.576;9.746;2022-12-15T01:06:38;100365.13;;;-6.48;100.00
4767;BME280;2397;53.576;9.746;2022-12-15T01:09:23;100370.03;;;-6.50;100.00
4767;BME280;2397;53.576;9.746;2022-12-15T01:12:08;100372.44;;;-6.51;100.00
4767;BME280;2397;53.576;9.746;2022-12-15T01:14:53;100373.56;;;-6.48;100.00
4767;BME280;2397;53.576;9.746;2022-12-15T01:17:37;100375.31;;;-6.47;100.00
4767;BME280;2397;53.576;9.746;2022-12-15T01:20:22;100381.00;;;-6.49;100.00
4767;BME280;2397;53.576;9.746;2022-12-15T01:22:51;100380.78;;;-6.53;100.00
4767;BME280;2397;53.576;9.746;2022-12-15T01:25:21;100389.25;;;-6.62;100.00
4767;BME280;2397;53.576;9.746;2022-12-15T01:27:48;100386.97;;;-6.59;100.00
4767;BME280;2397;53.576;9.746;2022-12-15T01:30:18;100376.16;;;-6.58;100.00
4767;BME280;2397;53.576;9.746;2022-12-15T01:32:45;100382.50;;;-6.51;100.00
4767;BME280;2397;53.576;9.746;2022-12-15T01:35:12;100384.91;;;-6.53;100.00
4767;BME280;2397;53.576;9.746;2022-12-15T01:37:38;100393.66;;;-6.60;100.00
4767;BME280;2397;53.576;9.746;2022-12-15T01:40:06;100382.84;;;-6.59;100.00
4767;BME280;2397;53.576;9.746;2022-12-15T01:42:52;100387.09;;;-6.58;100.00
4767;BME280;2397;53.576;9.746;2022-12-15T01:45:35;100389.25;;;-6.62;100.00
4767;BME280;2397;53.576;9.746;2022-12-15T01:48:09;100401.09;;;-6.61;100.00
4767;BME280;2397;53.576;9.746;2022-12-15T01:50:41;100401.09;;;-6.61;100.00
4767;BME280;2397;53.576;9.746;2022-12-15T01:53:10;100403.25;;;-6.66;100.00
4767;BME280;2397;53.576;9.746;2022-12-15T01:55:38;100387.94;;;-6.69;100.00
4767;BME280;2397;53.576;9.746;2022-12-15T01:58:07;100391.53;;;-6.65;100.00
4767;BME280;2397;53.576;9.746;2022-12-15T02:00:35;100395.03;;;-6.63;100.00
4767;BME280;2397;53.576;9.746;2022-12-15T02:03:03;100396.59;;;-6.65;100.00
4767;BME280;2397;53.576;9.746;2022-12-15T02:05:31;100389.78;;;-6.66;100.00
4767;BME280;2397;53.576;9.746;2022-12-15T02:08:00;100392.28;;;-6.66;100.00
4767;BME280;2397;53.576;9.746;2022-12-15T02:10:46;100390.56;;;-6.67;100.00
4767;BME280;2397;53.576;9.746;2022-12-15T02:13:49;100395.59;;;-6.67;100.00
4767;BME280;2397;53.576;9.746;2022-12-15T02:22:15;100400.88;;;-6.64;100.00
4767;BME280;2397;53.576;9.746;2022-12-15T02:25:08;100401.31;;;-6.58;100.00
4767;BME280;2397;53.576;9.746;2022-12-15T02:27:57;100400.56;;;-6.57;100.00
4767;BME280;2397;53.576;9.746;2022-12-15T02:30:40;100397.69;;;-6.62;100.00
4767;BME280;2397;53.576;9.746;2022-12-15T02:35:48;100410.94;;;-6.64;100.00
4767;BME280;2397;53.576;9.746;2022-12-15T02:38:38;100404.75;;;-6.68;100.00
4767;BME280;2397;53.576;9.746;2022-12-15T02:41:31;100409.16;;;-6.65;100.00
4767;BME280;2397;53.576;9.746;2022-12-15T02:44:00;100400.47;;;-6.59;100.00
4767;BME280;2397;53.576;9.746;2022-12-15T02:49:44;100387.59;;;-6.62;100.00
4767;BME280;2397;53.576;9.746;2022-12-15T02:52:29;100392.00;;;-6.59;100.00
4767;BME280;2397;53.576;9.746;2022-12-15T02:55:15;100392.91;;;-6.59;100.00
4767;BME280;2397;53.576;9.746;2022-12-15T02:58:05;100391.13;;;-6.60;100.00
4767;BME280;2397;53.576;9.746;2022-12-15T03:00:37;100387.59;;;-6.62;100.00
4767;BME280;2397;53.576;9.746;2022-12-15T03:03:05;100404.38;;;-6.62;100.00
4767;BME280;2397;53.576;9.746;2022-12-15T03:05:32;100402.81;;;-6.60;100.00
4767;BME280;2397;53.576;9.746;2022-12-15T03:07:59;100408.75;;;-6.60;100.00
4767;BME280;2397;53.576;9.746;2022-12-15T03:10:27;100410.25;;;-6.62;100.00
4767;BME280;2397;53.576;9.746;2022-12-15T03:12:53;100406.88;;;-6.62;100.00
4767;BME280;2397;53.576;9.746;2022-12-15T03:15:20;100407.22;;;-6.58;100.00
4767;BME280;2397;53.576;9.746;2022-12-15T03:17:46;100401.44;;;-6.57;100.00
4767;BME280;2397;53.576;9.746;2022-12-15T03:20:13;100416.66;;;-6.55;100.00
4767;BME280;2397;53.576;9.746;2022-12-15T03:22:39;100412.91;;;-6.60;100.00
4767;BME280;2397;53.576;9.746;2022-12-15T03:25:06;100414.66;;;-6.59;100.00
4767;BME280;2397;53.576;9.746;2022-12-15T03:27:34;100413.91;;;-6.58;100.00
4767;BME280;2397;53.576;9.746;2022-12-15T03:30:00;100412.16;;;-6.59;100.00
4767;BME280;2397;53.576;9.746;2022-12-15T03:32:28;100408.66;;;-6.61;100.00
4767;BME280;2397;53.576;9.746;2022-12-15T03:34:54;100406.88;;;-6.62;100.00
4767;BME280;2397;53.576;9.746;2022-12-15T03:37:21;100395.81;;;-6.64;100.00
4767;BME280;2397;53.576;9.746;2022-12-15T03:39:47;100400.75;;;-6.66;100.00
4767;BME280;2397;53.576;9.746;2022-12-15T03:42:13;100397.34;;;-6.66;100.00
4767;BME280;2397;53.576;9.746;2022-12-15T03:45:00;100400.63;;;-6.67;100.00
4767;BME280;2397;53.576;9.746;2022-12-15T03:47:26;100411.97;;;-6.73;100.00
4767;BME280;2397;53.576;9.746;2022-12-15T03:49:52;100415.34;;;-6.72;100.00
4767;BME280;2397;53.576;9.746;2022-12-15T03:52:19;100418.41;;;-6.76;100.00
4767;BME280;2397;53.576;9.746;2022-12-15T03:54:45;100418.53;;;-6.75;100.00
4767;BME280;2397;53.576;9.746;2022-12-15T03:57:12;100420.28;;;-6.74;100.00
4767;BME280;2397;53.576;9.746;2022-12-15T03:59:38;100420.28;;;-6.74;100.00
4767;BME280;2397;53.576;9.746;2022-12-15T04:02:04;100415.13;;;-6.75;100.00
4767;BME280;2397;53.576;9.746;2022-12-15T04:04:31;100418.53;;;-6.75;100.00
4767;BME280;2397;53.576;9.746;2022-12-15T04:06:58;100423.56;;;-6.75;100.00
4767;BME280;2397;53.576;9.746;2022-12-15T04:09:24;100427.47;;;-6.78;100.00
4767;BME280;2397;53.576;9.746;2022-12-15T04:11:50;100428.72;;;-6.73;100.00
4767;BME280;2397;53.576;9.746;2022-12-15T04:14:17;100420.81;;;-6.78;100.00
4767;BME280;2397;53.576;9.746;2022-12-15T04:16:44;100429.63;;;-6.83;100.00
4767;BME280;2397;53.576;9.746;2022-12-15T04:19:10;100430.78;;;-6.79;100.00
4767;BME280;2397;53.576;9.746;2022-12-15T04:21:55;100419.81;;;-6.80;100.00
4767;BME280;2397;53.576;9.746;2022-12-15T04:24:23;100423.84;;;-6.82;100.00
4767;BME280;2397;53.576;9.746;2022-12-15T04:27:08;100432.38;;;-6.80;100.00
4767;BME280;2397;53.576;9.746;2022-12-15T04:29:53;100416.78;;;-6.76;100.00
4767;BME280;2397;53.576;9.746;2022-12-15T04:32:38;100417.00;;;-6.73;100.00
4767;BME280;2397;53.576;9.746;2022-12-15T04:35:23;100417.53;;;-6.77;100.00
4767;BME280;2397;53.576;9.746;2022-12-15T04:38:07;100424.44;;;-6.74;100.00
4767;BME280;2397;53.576;9.746;2022-12-15T04:40:53;100432.97;;;-6.72;100.00
4767;BME280;2397;53.576;9.746;2022-12-15T04:43:38;100435.50;;;-6.72;100.00
4767;BME280;2397;53.576;9.746;2022-12-15T04:46:23;100438.50;;;-6.66;100.00
4767;BME280;2397;53.576;9.746;2022-12-15T04:49:08;100466.09;;;-6.67;100.00
4767;BME280;2397;53.576;9.746;2022-12-15T04:51:53;100465.59;;;-6.74;100.00
4767;BME280;2397;53.576;9.746;2022-12-15T04:54:38;100454.66;;;-6.74;100.00
4767;BME280;2397;53.576;9.746;2022-12-15T04:57:23;100462.56;;;-6.69;100.00
4767;BME280;2397;53.576;9.746;2022-12-15T05:00:09;100448.69;;;-6.64;100.00
4767;BME280;2397;53.576;9.746;2022-12-15T05:02:54;100447.91;;;-6.63;100.00
4767;BME280;2397;53.576;9.746;2022-12-15T05:05:43;100448.94;;;-6.61;100.00
4767;BME280;2397;53.576;9.746;2022-12-15T05:08:28;100444.00;;;-6.60;100.00
4767;BME280;2397;53.576;9.746;2022-12-15T05:11:15;100445.41;;;-6.63;100.00
4767;BME280;2397;53.576;9.746;2022-12-15T05:14:00;100440.59;;;-6.60;100.00
4767;BME280;2397;53.576;9.746;2022-12-15T05:16:45;100444.88;;;-6.59;100.00
4767;BME280;2397;53.576;9.746;2022-12-15T05:19:29;100437.31;;;-6.59;100.00
4767;BME280;2397;53.576;9.746;2022-12-15T05:22:14;100441.38;;;-6.61;100.00
4767;BME280;2397;53.576;9.746;2022-12-15T05:24:59;100445.41;;;-6.63;100.00
4767;BME280;2397;53.576;9.746;2022-12-15T05:27:44;100449.06;;;-6.60;100.00
4767;BME280;2397;53.576;9.746;2022-12-15T05:30:29;100449.91;;;-6.59;100.00
4767;BME280;2397;53.576;9.746;2022-12-15T05:33:14;100449.28;;;-6.57;100.00
4767;BME280;2397;53.576;9.746;2022-12-15T05:35:40;100464.28;;;-6.58;100.00
4767;BME280;2397;53.576;9.746;2022-12-15T05:38:06;100453.69;;;-6.54;100.00
4767;BME280;2397;53.576;9.746;2022-12-15T05:40:33;100456.84;;;-6.57;100.00
4767;BME280;2397;53.576;9.746;2022-12-15T05:42:59;100459.47;;;-6.55;100.00
4767;BME280;2397;53.576;9.746;2022-12-15T05:45:26;100455.41;;;-6.53;100.00
4767;BME280;2397;53.576;9.746;2022-12-15T05:47:54;100460.44;;;-6.53;100.00
4767;BME280;2397;53.576;9.746;2022-12-15T05:50:21;100462.00;;;-6.55;100.00
4767;BME280;2397;53.576;9.746;2022-12-15T05:52:48;100471.06;;;-6.57;100.00
4767;BME280;2397;53.576;9.746;2022-12-15T05:55:15;100470.28;;;-6.56;100.00
4767;BME280;2397;53.576;9.746;2022-12-15T05:57:42;100469.53;;;-6.55;100.00
4767;BME280;2397;53.576;9.746;2022-12-15T06:00:09;100478.09;;;-6.53;100.00
4767;BME280;2397;53.576;9.746;2022-12-15T06:02:35;100481.50;;;-6.53;100.00
4767;BME280;2397;53.576;9.746;2022-12-15T06:05:02;100478.97;;;-6.53;100.00
4767;BME280;2397;53.576;9.746;2022-12-15T06:07:28;100490.66;;;-6.53;100.00
4767;BME280;2397;53.576;9.746;2022-12-15T06:09:54;100503.03;;;-6.56;100.00
4767;BME280;2397;53.576;9.746;2022-12-15T06:12:21;100504.91;;;-6.54;100.00
4767;BME280;2397;53.576;9.746;2022-12-15T06:14:47;100507.94;;;-6.58;100.00
4767;BME280;2397;53.576;9.746;2022-12-15T06:17:15;100513.59;;;-6.60;100.00
4767;BME280;2397;53.576;9.746;2022-12-15T06:19:41;100507.81;;;-6.59;100.00
4767;BME280;2397;53.576;9.746;2022-12-15T06:22:07;100502.78;;;-6.59;100.00
4767;BME280;2397;53.576;9.746;2022-12-15T06:24:34;100508.06;;;-6.56;100.00
4767;BME280;2397;53.576;9.746;2022-12-15T06:27:00;100511.88;;;-6.61;100.00
4767;BME280;2397;53.576;9.746;2022-12-15T06:29:27;100510.09;;;-6.62;100.00
4767;BME280;2397;53.576;9.746;2022-12-15T06:31:53;100508.44;;;-6.62;100.00
4767;BME280;2397;53.576;9.746;2022-12-15T06:34:20;100508.44;;;-6.62;100.00
4767;BME280;2397;53.576;9.746;2022-12-15T06:36:46;100505.94;;;-6.62;100.00
4767;BME280;2397;53.576;9.746;2022-12-15T06:39:14;100512.75;;;-6.61;100.00
4767;BME280;2397;53.576;9.746;2022-12-15T06:41:41;100515.63;;;-6.56;100.00
4767;BME280;2397;53.576;9.746;2022-12-15T06:44:12;100514.22;;;-6.53;100.00
4767;BME280;2397;53.576;9.746;2022-12-15T06:46:38;100515.09;;;-6.52;100.00
4767;BME280;2397;53.576;9.746;2022-12-15T06:49:06;100520.88;;;-6.53;100.00
4767;BME280;2397;53.576;9.746;2022-12-15T06:51:33;100515.63;;;-6.56;100.00
4767;BME280;2397;53.576;9.746;2022-12-15T06:53:59;100526.69;;;-6.54;100.00
4767;BME280;2397;53.576;9.746;2022-12-15T06:56:28;100525.56;;;-6.58;100.00
4767;BME280;2397;53.576;9.746;2022-12-15T06:59:00;100529.22;;;-6.54;100.00
4767;BME280;2397;53.576;9.746;2022-12-15T07:01:28;100534.50;;;-6.51;100.00
4767;BME280;2397;53.576;9.746;2022-12-15T07:03:55;100539.53;;;-6.51;100.00
4767;BME280;2397;53.576;9.746;2022-12-15T07:06:22;100541.38;;;-6.48;100.00
4767;BME280;2397;53.576;9.746;2022-12-15T07:08:51;100543.28;;;-6.46;100.00
4767;BME280;2397;53.576;9.746;2022-12-15T07:11:19;100545.03;;;-6.45;100.00
4767;BME280;2397;53.576;9.746;2022-12-15T07:13:49;100545.91;;;-6.44;100.00
4767;BME280;2397;53.576;9.746;2022-12-15T07:16:16;100547.78;;;-6.42;100.00
4767;BME280;2397;53.576;9.746;2022-12-15T07:18:43;100551.97;;;-6.42;100.00
4767;BME280;2397;53.576;9.746;2022-12-15T07:21:10;100554.59;;;-6.41;100.00
4767;BME280;2397;53.576;9.746;2022-12-15T07:23:36;100557.00;;;-6.42;100.00
4767;BME280;2397;53.576;9.746;2022-12-15T07:26:21;100558.84;;;-6.40;100.00
4767;BME280;2397;53.576;9.746;2022-12-15T07:28:48;100566.91;;;-6.33;100.00
4767;BME280;2397;53.576;9.746;2022-12-15T07:31:14;100574.81;;;-6.29;100.00
4767;BME280;2397;53.576;9.746;2022-12-15T07:33:41;100597.34;;;-6.20;100.00
4767;BME280;2397;53.576;9.746;2022-12-15T07:36:08;100585.97;;;-6.15;100.00
4767;BME280;2397;53.576;9.746;2022-12-15T07:38:35;100593.53;;;-6.15;100.00
4767;BME280;2397;53.576;9.746;2022-12-15T07:41:03;100594.50;;;-6.13;100.00
4767;BME280;2397;53.576;9.746;2022-12-15T07:43:30;100606.47;;;-6.10;100.00
4767;BME280;2397;53.576;9.746;2022-12-15T07:45:58;100609.00;;;-6.10;100.00
4767;BME280;2397;53.576;9.746;2022-12-15T07:48:25;100601.56;;;-6.09;100.00
4767;BME280;2397;53.576;9.746;2022-12-15T07:50:52;100621.09;;;-6.06;100.00
4767;BME280;2397;53.576;9.746;2022-12-15T07:53:33;100621.94;;;-6.06;100.00
4767;BME280;2397;53.576;9.746;2022-12-15T07:56:00;100619.31;;;-6.07;100.00
4767;BME280;2397;53.576;9.746;2022-12-15T07:58:36;100629.50;;;-6.06;100.00
4767;BME280;2397;53.576;9.746;2022-12-15T08:01:06;100624.47;;;-6.06;100.00
4767;BME280;2397;53.576;9.746;2022-12-15T08:03:33;100623.94;;;-6.02;100.00
4767;BME280;2397;53.576;9.746;2022-12-15T08:06:05;100624.19;;;-5.98;100.00
4767;BME280;2397;53.576;9.746;2022-12-15T08:08:32;100626.72;;;-5.98;100.00
4767;BME280;2397;53.576;9.746;2022-12-15T08:11:07;100626.63;;;-5.88;100.00
4767;BME280;2397;53.576;9.746;2022-12-15T08:13:34;100636.47;;;-5.91;100.00
4767;BME280;2397;53.576;9.746;2022-12-15T08:16:20;100639.97;;;-5.89;100.00
4767;BME280;2397;53.576;9.746;2022-12-15T08:18:47;100637.84;;;-5.85;100.00
4767;BME280;2397;53.576;9.746;2022-12-15T08:21:14;100635.22;;;-5.86;100.00
4767;BME280;2397;53.576;9.746;2022-12-15T08:23:40;100630.41;;;-5.83;100.00
4767;BME280;2397;53.576;9.746;2022-12-15T08:26:09;100648.50;;;-5.77;100.00
4767;BME280;2397;53.576;9.746;2022-12-15T08:28:38;100649.72;;;-5.72;100.00
4767;BME280;2397;53.576;9.746;2022-12-15T08:31:07;100650.47;;;-5.62;100.00
4767;BME280;2397;53.576;9.746;2022-12-15T08:33:34;100654.19;;;-5.57;100.00
4767;BME280;2397;53.576;9.746;2022-12-15T08:36:04;100659.72;;;-5.51;100.00
4767;BME280;2397;53.576;9.746;2022-12-15T08:38:32;100650.88;;;-5.46;100.00
4767;BME280;2397;53.576;9.746;2022-12-15T08:41:10;100652.84;;;-5.42;100.00
4767;BME280;2397;53.576;9.746;2022-12-15T08:43:37;100648.69;;;-5.41;100.00
4767;BME280;2397;53.576;9.746;2022-12-15T08:46:13;100643.00;;;-5.39;100.00
4767;BME280;2397;53.576;9.746;2022-12-15T08:48:40;100642.31;;;-5.36;100.00
4767;BME280;2397;53.576;9.746;2022-12-15T08:51:06;100639.28;;;-5.32;100.00
4767;BME280;2397;53.576;9.746;2022-12-15T08:53:33;100642.38;;;-5.24;100.00
4767;BME280;2397;53.576;9.746;2022-12-15T08:56:10;100640.06;;;-5.21;100.00
4767;BME280;2397;53.576;9.746;2022-12-15T08:58:38;100631.75;;;-5.20;100.00
4767;BME280;2397;53.576;9.746;2022-12-15T09:01:06;100646.47;;;-5.15;100.00
4767;BME280;2397;53.576;9.746;2022-12-15T09:03:34;100647.97;;;-5.17;100.00
4767;BME280;2397;53.576;9.746;2022-12-15T09:06:06;100640.53;;;-5.15;100.00
4767;BME280;2397;53.576;9.746;2022-12-15T09:08:33;100644.19;;;-5.12;100.00
4767;BME280;2397;53.576;9.746;2022-12-15T09:11:00;100656.91;;;-5.10;100.00
4767;BME280;2397;53.576;9.746;2022-12-15T09:13:27;100657.78;;;-5.09;100.00
4767;BME280;2397;53.576;9.746;2022-12-15T09:15:56;100660.34;;;-4.98;100.00
4767;BME280;2397;53.576;9.746;2022-12-15T09:18:34;100660.78;;;-4.91;100.00
4767;BME280;2397;53.576;9.746;2022-12-15T09:21:02;100668.16;;;-4.83;100.00
4767;BME280;2397;53.576;9.746;2022-12-15T09:23:29;100661.19;;;-4.75;100.00
4767;BME280;2397;53.576;9.746;2022-12-15T09:26:05;100656.69;;;-4.67;100.00
4767;BME280;2397;53.576;9.746;2022-12-15T09:28:32;100663.16;;;-4.59;100.00
4767;BME280;2397;53.576;9.746;2022-12-15T09:31:06;100662.94;;;-4.50;100.00
4767;BME280;2397;53.576;9.746;2022-12-15T09:33:33;100659.13;;;-4.45;100.00
4767;BME280;2397;53.576;9.746;2022-12-15T09:36:01;100678.00;;;-4.40;100.00
4767;BME280;2397;53.576;9.746;2022-12-15T09:38:29;100662.63;;;-4.43;100.00
4767;BME280;2397;53.576;9.746;2022-12-15T09:40:56;100686.38;;;-4.41;100.00
4767;BME280;2397;53.576;9.746;2022-12-15T09:43:24;100682.06;;;-4.42;100.00
4767;BME280;2397;53.576;9.746;2022-12-15T09:49:11;100675.59;;;-4.38;100.00
4767;BME280;2397;53.576;9.746;2022-12-15T09:52:05;100662.19;;;-4.37;100.00
4767;BME280;2397;53.576;9.746;2022-12-15T09:54:37;100658.47;;;-4.31;100.00
4767;BME280;2397;53.576;9.746;2022-12-15T09:57:09;100661.75;;;-4.32;100.00
4767;BME280;2397;53.576;9.746;2022-12-15T10:00:03;100661.75;;;-4.32;100.00
4767;BME280;2397;53.576;9.746;2022-12-15T10:05:58;100667.25;;;-4.26;100.00
4767;BME280;2397;53.576;9.746;2022-12-15T10:11:25;100665.91;;;-4.20;100.00
4767;BME280;2397;53.576;9.746;2022-12-15T10:16:36;100659.88;;;-4.11;100.00
4767;BME280;2397;53.576;9.746;2022-12-15T10:19:10;100655.13;;;-4.06;100.00
4767;BME280;2397;53.576;9.746;2022-12-15T10:21:39;100653.38;;;-3.95;100.00
4767;BME280;2397;53.576;9.746;2022-12-15T10:24:18;100666.78;;;-3.84;100.00
4767;BME280;2397;53.576;9.746;2022-12-15T10:29:49;100655.50;;;-3.76;100.00
4767;BME280;2397;53.576;9.746;2022-12-15T10:32:46;100665.84;;;-3.73;100.00
4767;BME280;2397;53.576;9.746;2022-12-15T10:35:30;100646.41;;;-3.74;100.00
4767;BME280;2397;53.576;9.746;2022-12-15T10:37:59;100664.22;;;-3.73;100.00
4767;BME280;2397;53.576;9.746;2022-12-15T10:40:45;100659.91;;;-3.74;100.00
4767;BME280;2397;53.576;9.746;2022-12-15T10:43:33;100657.69;;;-3.69;100.00
4767;BME280;2397;53.576;9.746;2022-12-15T10:46:13;100659.47;;;-3.68;100.00
4767;BME280;2397;53.576;9.746;2022-12-15T10:48:42;100656.19;;;-3.67;100.00
4767;BME280;2397;53.576;9.746;2022-12-15T10:51:42;100662.31;;;-3.63;100.00
4767;BME280;2397;53.576;9.746;2022-12-15T10:54:14;100660.66;;;-3.63;100.00
4767;BME280;2397;53.576;9.746;2022-12-15T10:56:47;100657.00;;;-3.55;100.00
4767;BME280;2397;53.576;9.746;2022-12-15T10:59:30;100653.22;;;-3.48;100.00
4767;BME280;2397;53.576;9.746;2022-12-15T11:04:59;100652.97;;;-3.39;100.00
4767;BME280;2397;53.576;9.746;2022-12-15T11:07:32;100656.81;;;-3.32;100.00
4767;BME280;2397;53.576;9.746;2022-12-15T11:10:01;100655.81;;;-3.23;100.00
4767;BME280;2397;53.576;9.746;2022-12-15T11:12:33;100650.69;;;-3.11;100.00
4767;BME280;2397;53.576;9.746;2022-12-15T11:18:17;100651.78;;;-2.94;100.00
4767;BME280;2397;53.576;9.746;2022-12-15T11:20:51;100649.75;;;-2.86;100.00
4767;BME280;2397;53.576;9.746;2022-12-15T11:23:33;100657.09;;;-2.77;100.00
4767;BME280;2397;53.576;9.746;2022-12-15T11:26:21;100655.53;;;-2.75;100.00
4767;BME280;2397;53.576;9.746;2022-12-15T11:28:55;100650.16;;;-2.67;100.00
4767;BME280;2397;53.576;9.746;2022-12-15T11:31:32;100648.81;;;-2.61;100.00
4767;BME280;2397;53.576;9.746;2022-12-15T11:34:01;100662.09;;;-2.52;100.00
4767;BME280;2397;53.576;9.746;2022-12-15T11:42:21;100665.31;;;-2.28;100.00
4767;BME280;2397;53.576;9.746;2022-12-15T11:44:53;100671.75;;;-2.20;100.00
4767;BME280;2397;53.576;9.746;2022-12-15T11:47:51;100670.59;;;-2.12;100.00
4767;BME280;2397;53.576;9.746;2022-12-15T11:52:59;100673.03;;;-2.00;100.00
4767;BME280;2397;53.576;9.746;2022-12-15T11:55:47;100673.59;;;-1.90;100.00
4767;BME280;2397;53.576;9.746;2022-12-15T12:04:29;100672.06;;;-1.60;100.00
4767;BME280;2397;53.576;9.746;2022-12-15T12:07:24;100672.84;;;-1.48;100.00
4767;BME280;2397;53.576;9.746;2022-12-15T12:10:22;100674.78;;;-1.44;100.00
4767;BME280;2397;53.576;9.746;2022-12-15T12:13:20;100667.63;;;-1.36;100.00
4767;BME280;2397;53.576;9.746;2022-12-15T12:15:59;100672.09;;;-1.32;100.00
4767;BME280;2397;53.576;9.746;2022-12-15T12:18:41;100675.50;;;-1.31;100.00
4767;BME280;2397;53.576;9.746;2022-12-15T12:21:22;100673.31;;;-1.25;100.00
4767;BME280;2397;53.576;9.746;2022-12-15T12:27:01;100681.34;;;-1.32;100.00
4767;BME280;2397;53.576;9.746;2022-12-15T12:29:33;100674.91;;;-1.27;100.00
4767;BME280;2397;53.576;9.746;2022-12-15T12:32:14;100684.00;;;-1.31;100.00
4767;BME280;2397;53.576;9.746;2022-12-15T12:35:03;100671.88;;;-1.35;100.00
4767;BME280;2397;53.576;9.746;2022-12-15T12:38:03;100670.84;;;-1.38;100.00
4767;BME280;2397;53.576;9.746;2022-12-15T12:43:06;100678.50;;;-1.24;100.00
4767;BME280;2397;53.576;9.746;2022-12-15T12:48:39;100679.13;;;-1.13;100.00
4767;BME280;2397;53.576;9.746;2022-12-15T12:51:34;100679.53;;;-1.07;100.00
4767;BME280;2397;53.576;9.746;2022-12-15T12:54:36;100676.34;;;-1.02;100.00
4767;BME280;2397;53.576;9.746;2022-12-15T12:56:55;100672.59;;;-0.94;100.00
4767;BME280;2397;53.576;9.746;2022-12-15T13:10:21;100664.28;;;-0.92;100.00
4767;BME280;2397;53.576;9.746;2022-12-15T13:12:52;100664.47;;;-0.89;100.00
4767;BME280;2397;53.576;9.746;2022-12-15T13:18:06;100672.97;;;-0.88;100.00
4767;BME280;2397;53.576;9.746;2022-12-15T13:20:35;100677.09;;;-0.90;100.00
4767;BME280;2397;53.576;9.746;2022-12-15T13:31:26;100677.78;;;-0.93;100.00
4767;BME280;2397;53.576;9.746;2022-12-15T13:34:00;100679.38;;;-0.95;100.00
4767;BME280;2397;53.576;9.746;2022-12-15T13:44:35;100678.81;;;-0.89;100.00
4767;BME280;2397;53.576;9.746;2022-12-15T13:47:19;100676.00;;;-0.94;100.00
4767;BME280;2397;53.576;9.746;2022-12-15T13:49:54;100681.19;;;-0.92;100.00
4767;BME280;2397;53.576;9.746;2022-12-15T13:52:47;100684.81;;;-0.89;100.00
4767;BME280;2397;53.576;9.746;2022-12-15T13:55:39;100686.53;;;-0.88;100.00
4767;BME280;2397;53.576;9.746;2022-12-15T13:58:17;100684.16;;;-0.84;100.00
4767;BME280;2397;53.576;9.746;2022-12-15T14:00:51;100691.00;;;-0.83;100.00
4767;BME280;2397;53.576;9.746;2022-12-15T14:03:18;100689.53;;;-0.80;100.00
4767;BME280;2397;53.576;9.746;2022-12-15T14:05:49;100689.72;;;-0.77;100.00
4767;BME280;2397;53.576;9.746;2022-12-15T14:08:17;100690.94;;;-0.70;100.00
4767;BME280;2397;53.576;9.746;2022-12-15T14:10:48;100690.16;;;-0.69;100.00
4767;BME280;2397;53.576;9.746;2022-12-15T14:15:45;100690.84;;;-0.72;100.00
4767;BME280;2397;53.576;9.746;2022-12-15T14:18:28;100696.09;;;-0.68;100.00
4767;BME280;2397;53.576;9.746;2022-12-15T14:20:56;100693.66;;;-0.67;100.00
4767;BME280;2397;53.576;9.746;2022-12-15T14:23:29;100684.47;;;-0.65;100.00
4767;BME280;2397;53.576;9.746;2022-12-15T14:26:06;100690.41;;;-0.64;100.00
4767;BME280;2397;53.576;9.746;2022-12-15T14:28:38;100686.59;;;-0.58;100.00
4767;BME280;2397;53.576;9.746;2022-12-15T14:31:10;100690.06;;;-0.56;100.00
4767;BME280;2397;53.576;9.746;2022-12-15T14:33:41;100685.69;;;-0.58;100.00
4767;BME280;2397;53.576;9.746;2022-12-15T14:36:11;100689.03;;;-0.59;100.00
4767;BME280;2397;53.576;9.746;2022-12-15T14:38:44;100684.91;;;-0.57;100.00
4767;BME280;2397;53.576;9.746;2022-12-15T14:41:20;100680.78;;;-0.55;100.00
4767;BME280;2397;53.576;9.746;2022-12-15T14:43:48;100688.47;;;-0.54;100.00
4767;BME280;2397;53.576;9.746;2022-12-15T14:46:35;100683.41;;;-0.54;100.00
4767;BME280;2397;53.576;9.746;2022-12-15T14:49:07;100691.13;;;-0.52;100.00
4767;BME280;2397;53.576;9.746;2022-12-15T14:51:58;100687.72;;;-0.52;100.00
4767;BME280;2397;53.576;9.746;2022-12-15T14:54:33;100692.72;;;-0.54;100.00
4767;BME280;2397;53.576;9.746;2022-12-15T14:57:12;100694.47;;;-0.53;100.00
4767;BME280;2397;53.576;9.746;2022-12-15T14:59:42;100697.97;;;-0.51;100.00
4767;BME280;2397;53.576;9.746;2022-12-15T15:02:26;100694.31;;;-0.56;100.00
4767;BME280;2397;53.576;9.746;2022-12-15T15:05:00;100704.63;;;-0.53;100.00
4767;BME280;2397;53.576;9.746;2022-12-15T15:07:31;100698.75;;;-0.52;100.00